BUCHANAN DAM (BUC)

Elevation: 450' · CHOWCHILLA R basin · Operator: US Army Corps of Engineers

Provisional data, subject to change.
Query executed Sunday at 14:34:09   clock

Select a sensor type for a plot of data.
Note: Reservoir Flows are daily averages.

Earlier

Date RES ELE    STORAGE    RES CHG    TOC STO    OUTFLOW    INFLOW    PPT INC    TEMP MN    TEMP MX   
 FEET   AF   AF   AF   CFS   CFS   INCHES   DEG F   DEG F  
03/21/2014 472.35 13488 0 123200 0 3 0.00 47 78
03/22/2014 472.35 13488 0 123700 0 3 0.00 44 76
03/23/2014 472.35 13488 0 124200 0 3 0.00 44 77
03/24/2014 472.35 13488 0 124600 0 3 0.00 47 82
03/25/2014 472.34 13482 -6 124400 0 -1 0.00 48 74
03/26/2014 472.36 13493 11 124400 0 7 0.13 50 58
03/27/2014 472.36 13493 0 124800 0 2 0.01 44 65
03/28/2014 472.37 13499 6 125300 0 6 0.00 44 73
03/29/2014 472.41 13522 23 125700 0 14 0.28 48 73
03/30/2014 472.42 13527 5 126000 0 5 0.09 46 62
03/31/2014 472.45 13545 18 126000 0 11 0.14 42 64
04/01/2014 472.50 13573 28 126100 0 16 0.32 37 59
04/02/2014 472.52 13584 11 126000 0 8 0.13 41 62
04/03/2014 472.56 13607 23 126600 0 14 0.00 42 69
04/04/2014 472.59 13624 17 127200 0 11 0.00 42 65
04/05/2014 472.62 13641 17 127800 0 11 0.01 39 66
04/06/2014 472.64 13653 12 128400 0 9 0.00 45 73
04/07/2014 472.67 13670 17 128900 0 12 0.03 51 86
04/08/2014 472.68 13676 6 129500 0 7 0.00 54 90
04/09/2014 472.70 13687 11 130100 0 9 0.00 54 88
04/10/2014 472.71 13693 6 130800 0 7 0.01 54 89
04/11/2014 472.72 13699 6 131400 0 7 0.00 58 88
04/12/2014 472.73 13704 5 132000 0 6 0.00 52 80
04/13/2014 472.73 13704 0 132600 0 4 0.00 49 78
04/14/2014 472.73 13704 0 133200 0 4 0.00 54 87
04/15/2014 472.72 13699 -5 133800 0 2 0.01 58 87
04/16/2014 472.71 13693 -6 134400 0 1 0.00 50 86
04/17/2014 472.71 13693 0 134800 0 3 0.00 54 86
04/18/2014 472.70 13687 -6 135400 0 1 0.00 56 82
04/19/2014 472.69 13681 -6 136000 0 1 0.00 55 83
04/20/2014 -- -- -- -- -- -- -- -- --

Later | Latest

Warning! This data is preliminary and subject to revision.

Download Data Now Download Data Now | Show BUC Map | Plot BUC Data | 1 Month BUC Data | Real-Time BUC Data | BUC Info